Capitol Logistics 995

Operating for DHL



EGPE
Inverness Airport
Inverness, GB
EGNX
East Midlands Airport
Derby, GB

Activity Log

Date Flight Route Aircraft Duration
03/15/2022 CPX995 GUSSI NESDI N560 ERSON ELBUS UL612 CROFT ROKU1B B738 1h 13m
01/10/2022 CPX995 GUSSI NESDI N560 ERSON ELBUS UL612 CROFT ROKU1B A30F 1h 00m

Route Details

Aircraft Information
Group: European Fleet
Types: A30F,A31F,B738
Route Data
Demand: L
Distance: 298nm
Duration: 1h 25m
Recm'd Route: GUSSI NESDI N560 ERSON ELBUS UL612 CROFT ROKU1B
Origin Wx: EGPE 270620Z 24012KT 9999 FEW021 BKN041 10/07 Q1014
Dest. Wx: EGNX 270620Z 26012KT CAVOK 11/04 Q1023
Notes:

Financial History
Total Freight: 71,631lbs
Average Load: 35,816lbs/flt
Fuel Used: 18,629lbs
Avg. Fuel Used: 9,315lbs/flt
Fuel Expense: $14,885
Avg. Fuel Expense: $7,442
Avg. Fuel Cost: $0.80/lbs
Total Gross Income: $154,605
Pilot Pay: $518
Total Expenses: $20,919
Total Revenue: $118,247
Average Revenue: $77,302.39